Time;durP1;ratioP1;P1;durP2;ratioP2;P2;SDS_P1;SDS_P2;PMS_P1;PMS_P2;Temp;Humidity;BMP_temperature;BMP_pressure;BME280_temperature;BME280_humidity;BME280_pressure;Samples;Min_cycle;Max_cycle;Signal;HPM_P1;HPM_P2
2022/04/19 00:01:10;;;;;;;4.10;3.90;;;;;;;;;;4979472;28;20688;-84
2022/04/19 00:03:42;;;;;;;4.07;3.83;;;;;;;;;;4971129;28;20444;-85
2022/04/19 00:06:08;;;;;;;3.37;3.27;;;;;;;;;;4973632;28;20486;-84
2022/04/19 00:08:35;;;;;;;5.20;4.43;;;;;;;;;;4966628;28;20455;-85
2022/04/19 00:11:13;;;;;;;3.77;3.57;;;;;;;;;;4987522;28;20403;-84
2022/04/19 00:13:39;;;;;;;3.70;3.60;;;;;;;;;;4971024;28;20464;-83
2022/04/19 00:16:05;;;;;;;4.27;4.17;;;;;;;;;;4979794;28;20452;-84
2022/04/19 00:18:32;;;;;;;3.90;3.80;;;;;;;;;;4974513;28;20492;-86
2022/04/19 00:21:02;;;;;;;3.40;3.30;;;;;;;;;;4987308;28;20536;-85
2022/04/19 00:23:28;;;;;;;4.17;3.97;;;;;;;;;;4977849;28;20498;-84
2022/04/19 00:25:54;;;;;;;5.23;4.93;;;;;;;;;;4971120;28;20420;-85
2022/04/19 00:28:20;;;;;;;3.93;3.83;;;;;;;;;;4986303;28;20422;-85
2022/04/19 00:30:47;;;;;;;3.80;3.60;;;;;;;;;;4979002;28;20399;-85
2022/04/19 00:33:19;;;;;;;9.10;3.57;;;;;;;;;;4974698;28;20516;-85
2022/04/19 00:35:45;;;;;;;4.20;4.00;;;;;;;;;;4987995;28;20416;-85
2022/04/19 00:38:16;;;;;;;4.57;3.70;;;;;;;;;;4986845;28;20436;-85
2022/04/19 00:40:52;;;;;;;3.73;3.60;;;;;;;;;;4990138;28;20476;-84
2022/04/19 00:43:31;;;;;;;3.83;3.63;;;;;;;;;;4987906;28;20435;-86
2022/04/19 00:45:57;;;;;;;3.53;3.20;;;;;;;;;;4972281;28;21059;-86
2022/04/19 00:49:10;;;;;;;3.50;3.40;;;;;;;;;;4986338;28;20498;-86
2022/04/19 00:51:45;;;;;;;4.53;3.73;;;;;;;;;;4888350;29;20431;-86
2022/04/19 00:54:29;;;;;;;4.07;3.93;;;;;;;;;;4898806;29;20987;-85
2022/04/19 00:57:07;;;;;;;3.53;3.43;;;;;;;;;;4949083;28;20410;-86
2022/04/19 00:59:33;;;;;;;3.80;3.70;;;;;;;;;;4963865;28;20787;-86
2022/04/19 01:02:11;;;;;;;4.30;3.47;;;;;;;;;;4984048;28;20431;-85
2022/04/19 01:04:40;;;;;;;3.60;3.40;;;;;;;;;;4989197;28;20900;-85
2022/04/19 01:07:06;;;;;;;3.93;3.73;;;;;;;;;;4966095;28;20398;-86
2022/04/19 01:09:32;;;;;;;3.57;3.27;;;;;;;;;;4991161;28;20455;-85
2022/04/19 01:14:48;;;;;;;3.40;3.30;;;;;;;;;;4991433;28;20532;-85
2022/04/19 01:17:17;;;;;;;3.20;3.10;;;;;;;;;;4987672;28;20448;-85
2022/04/19 01:19:44;;;;;;;3.77;3.67;;;;;;;;;;4969760;28;20453;-86
2022/04/19 01:22:13;;;;;;;3.30;3.27;;;;;;;;;;4979018;28;20399;-85
2022/04/19 01:24:40;;;;;;;6.83;3.47;;;;;;;;;;4961522;28;20409;-86
2022/04/19 01:27:06;;;;;;;4.07;3.80;;;;;;;;;;4974656;28;20482;-85
2022/04/19 01:29:35;;;;;;;3.70;3.50;;;;;;;;;;4990729;28;20383;-85
2022/04/19 01:32:03;;;;;;;3.77;3.73;;;;;;;;;;4978913;28;20502;-84
2022/04/19 01:34:31;;;;;;;4.47;4.27;;;;;;;;;;4973100;28;20399;-85
2022/04/19 01:36:58;;;;;;;4.57;4.17;;;;;;;;;;4990264;28;20429;-85
2022/04/19 01:42:09;;;;;;;3.77;3.67;;;;;;;;;;4982394;28;20475;-85
2022/04/19 01:44:38;;;;;;;3.30;3.10;;;;;;;;;;4983842;28;20465;-85
2022/04/19 01:47:07;;;;;;;3.97;3.47;;;;;;;;;;4981231;28;20932;-85
2022/04/19 01:49:44;;;;;;;3.87;3.77;;;;;;;;;;4978907;28;20433;-85
2022/04/19 01:52:14;;;;;;;4.00;3.90;;;;;;;;;;4974851;28;20428;-85
2022/04/19 01:54:40;;;;;;;3.90;3.70;;;;;;;;;;4961455;28;20435;-84
2022/04/19 01:57:06;;;;;;;4.50;4.10;;;;;;;;;;4974720;28;20462;-85
2022/04/19 01:59:43;;;;;;;4.30;4.00;;;;;;;;;;4981582;28;20458;-84
2022/04/19 02:02:30;;;;;;;3.80;3.67;;;;;;;;;;4971805;28;20425;-83
2022/04/19 02:05:08;;;;;;;4.47;4.27;;;;;;;;;;4971728;28;20904;-84
2022/04/19 02:07:41;;;;;;;4.20;3.57;;;;;;;;;;4970617;28;20449;-85
2022/04/19 02:10:11;;;;;;;3.80;3.70;;;;;;;;;;4956528;28;20946;-84
2022/04/19 02:12:38;;;;;;;4.67;4.43;;;;;;;;;;4988903;28;20431;-84
2022/04/19 02:15:07;;;;;;;4.23;4.03;;;;;;;;;;4989607;28;20782;-84
2022/04/19 02:17:47;;;;;;;3.70;3.60;;;;;;;;;;4987969;28;20439;-83
2022/04/19 02:20:17;;;;;;;4.40;4.10;;;;;;;;;;4981897;28;20492;-86
2022/04/19 02:22:43;;;;;;;4.07;3.90;;;;;;;;;;4983153;28;20968;-85
2022/04/19 02:25:11;;;;;;;4.53;3.80;;;;;;;;;;4975764;28;20410;-85
2022/04/19 02:27:39;;;;;;;4.43;4.23;;;;;;;;;;4984031;28;20465;-85
2022/04/19 02:30:06;;;;;;;4.40;4.10;;;;;;;;;;4981602;28;20435;-85
2022/04/19 02:32:34;;;;;;;4.63;3.90;;;;;;;;;;4987878;28;20493;-85
2022/04/19 02:35:00;;;;;;;4.90;3.83;;;;;;;;;;4978497;28;20456;-85
2022/04/19 02:37:28;;;;;;;4.30;3.90;;;;;;;;;;4981425;28;20450;-85
2022/04/19 02:39:54;;;;;;;4.13;3.93;;;;;;;;;;4975520;28;20472;-84
2022/04/19 02:42:20;;;;;;;4.17;4.07;;;;;;;;;;4978335;28;20830;-85
2022/04/19 02:44:50;;;;;;;4.60;4.40;;;;;;;;;;4979905;28;20908;-85
2022/04/19 02:47:17;;;;;;;5.03;4.60;;;;;;;;;;4988050;28;20432;-84
2022/04/19 02:49:59;;;;;;;5.87;4.80;;;;;;;;;;4973767;28;20711;-86
2022/04/19 02:52:28;;;;;;;5.63;5.33;;;;;;;;;;4982704;28;20430;-85
2022/04/19 02:58:14;;;;;;;4.70;4.50;;;;;;;;;;5052786;23;20524;-85
2022/04/19 03:00:42;;;;;;;4.70;4.30;;;;;;;;;;4958890;28;20413;-85
2022/04/19 03:03:09;;;;;;;4.43;4.23;;;;;;;;;;4967624;28;20437;-84
2022/04/19 03:09:21;;;;;;;5.63;5.10;;;;;;;;;;4961680;28;20438;-85
2022/04/19 03:11:49;;;;;;;4.80;4.60;;;;;;;;;;4974656;28;20404;-84
2022/04/19 03:14:17;;;;;;;6.70;5.03;;;;;;;;;;4961993;28;20944;-84
2022/04/19 03:16:48;;;;;;;6.37;5.10;;;;;;;;;;4978019;28;20415;-84
2022/04/19 03:19:14;;;;;;;4.70;4.50;;;;;;;;;;4966508;28;20639;-84
2022/04/19 03:21:40;;;;;;;4.30;4.10;;;;;;;;;;4977942;28;20467;-85
2022/04/19 03:29:52;;;;;;;5.40;5.10;;;;;;;;;;4958910;28;20548;-84
2022/04/19 03:32:23;;;;;;;4.77;4.57;;;;;;;;;;4962331;28;20882;-85
2022/04/19 03:34:53;;;;;;;5.97;5.47;;;;;;;;;;4966820;28;20429;-85
2022/04/19 03:37:19;;;;;;;5.47;5.03;;;;;;;;;;4964967;28;20412;-84
2022/04/19 03:39:45;;;;;;;4.73;4.33;;;;;;;;;;4974543;28;20443;-86
2022/04/19 03:42:11;;;;;;;5.13;4.90;;;;;;;;;;4974260;28;20428;-86
2022/04/19 03:44:49;;;;;;;4.97;4.63;;;;;;;;;;4973839;28;20419;-85
2022/04/19 03:47:18;;;;;;;5.00;4.70;;;;;;;;;;4960614;28;20398;-85
2022/04/19 03:49:44;;;;;;;5.13;4.73;;;;;;;;;;5025391;23;20733;-80
2022/04/19 03:52:10;;;;;;;5.40;5.10;;;;;;;;;;4969271;28;20970;-81
2022/04/19 03:54:37;;;;;;;5.10;4.70;;;;;;;;;;4985145;28;20429;-81
2022/04/19 03:57:04;;;;;;;4.77;4.50;;;;;;;;;;4951077;28;20411;-80
2022/04/19 03:59:30;;;;;;;4.80;4.60;;;;;;;;;;4976695;28;20825;-80
2022/04/19 04:01:56;;;;;;;10.40;5.33;;;;;;;;;;4979202;28;20419;-80
2022/04/19 04:04:22;;;;;;;5.27;4.83;;;;;;;;;;4974537;28;20470;-79
2022/04/19 04:06:48;;;;;;;4.97;4.67;;;;;;;;;;4976791;28;20831;-80
2022/04/19 04:09:14;;;;;;;4.63;4.43;;;;;;;;;;4972396;28;20456;-80
2022/04/19 04:11:43;;;;;;;5.50;5.20;;;;;;;;;;4987304;28;20378;-80
2022/04/19 04:14:09;;;;;;;5.13;4.83;;;;;;;;;;4967641;28;20442;-78
2022/04/19 04:16:35;;;;;;;4.93;4.73;;;;;;;;;;4987443;28;20391;-79
2022/04/19 04:19:01;;;;;;;5.10;4.80;;;;;;;;;;4984853;28;20427;-79
2022/04/19 04:21:27;;;;;;;5.53;5.23;;;;;;;;;;4973122;28;20802;-79
2022/04/19 04:23:53;;;;;;;5.17;4.73;;;;;;;;;;4961278;28;21108;-79
2022/04/19 04:26:19;;;;;;;5.20;4.77;;;;;;;;;;4962932;28;20443;-80
2022/04/19 04:28:45;;;;;;;6.43;5.47;;;;;;;;;;4972228;28;20480;-79
2022/04/19 04:31:11;;;;;;;5.20;5.00;;;;;;;;;;4979019;28;20400;-79
2022/04/19 04:33:37;;;;;;;6.27;5.93;;;;;;;;;;4981970;28;20418;-79
2022/04/19 04:36:03;;;;;;;5.90;5.53;;;;;;;;;;4962657;28;20812;-80
2022/04/19 04:38:29;;;;;;;5.47;5.07;;;;;;;;;;4970689;28;20451;-78
2022/04/19 04:40:55;;;;;;;5.50;5.07;;;;;;;;;;4959872;28;20403;-79
2022/04/19 04:43:21;;;;;;;6.60;6.10;;;;;;;;;;4968987;28;20441;-80
2022/04/19 04:49:35;;;;;;;5.70;5.17;;;;;;;;;;4983973;28;20933;-80
2022/04/19 04:51:20;;;;;;;5.00;4.80;;;;;;;;;;4985737;28;20449;-79
2022/04/19 04:53:46;;;;;;;5.67;5.37;;;;;;;;;;4967355;28;20490;-79
2022/04/19 04:56:12;;;;;;;9.00;6.17;;;;;;;;;;4977116;28;20863;-80
2022/04/19 04:58:38;;;;;;;8.77;6.70;;;;;;;;;;4972576;28;20441;-80
2022/04/19 05:01:04;;;;;;;6.73;6.20;;;;;;;;;;4977978;28;20423;-80
2022/04/19 05:03:30;;;;;;;6.70;6.00;;;;;;;;;;4972707;28;20448;-79
2022/04/19 05:05:57;;;;;;;7.03;6.30;;;;;;;;;;4967437;28;20805;-81
2022/04/19 05:08:23;;;;;;;6.80;6.10;;;;;;;;;;4968331;28;20805;-79
2022/04/19 05:10:49;;;;;;;6.20;5.80;;;;;;;;;;4973695;28;20476;-81
2022/04/19 05:13:15;;;;;;;6.43;5.40;;;;;;;;;;4967064;28;20499;-81
2022/04/19 05:15:41;;;;;;;6.73;6.03;;;;;;;;;;4965784;28;20479;-80
2022/04/19 05:18:07;;;;;;;6.10;5.50;;;;;;;;;;4980539;28;20498;-80
2022/04/19 05:20:33;;;;;;;7.07;6.50;;;;;;;;;;4969418;28;20523;-80
2022/04/19 05:22:59;;;;;;;6.67;6.07;;;;;;;;;;4971646;28;20399;-79
2022/04/19 05:25:25;;;;;;;5.87;5.37;;;;;;;;;;4282585;28;10000784;-79
2022/04/19 05:27:51;;;;;;;8.17;7.37;;;;;;;;;;4972874;28;20437;-79
2022/04/19 05:30:17;;;;;;;6.40;6.00;;;;;;;;;;4963411;28;20459;-79
2022/04/19 05:32:43;;;;;;;5.73;5.33;;;;;;;;;;4967098;28;20470;-80
2022/04/19 05:35:09;;;;;;;5.50;5.10;;;;;;;;;;4968828;28;20434;-79
2022/04/19 05:37:38;;;;;;;8.17;4.53;;;;;;;;;;4966833;28;20433;-78
2022/04/19 05:40:05;;;;;;;5.70;5.30;;;;;;;;;;4974913;28;20963;-78
2022/04/19 05:42:31;;;;;;;6.00;5.50;;;;;;;;;;4966724;28;20406;-79
2022/04/19 05:44:57;;;;;;;6.03;5.50;;;;;;;;;;4965214;28;20728;-78
2022/04/19 05:47:23;;;;;;;5.87;5.47;;;;;;;;;;4966530;28;20429;-78
2022/04/19 05:49:49;;;;;;;5.33;5.00;;;;;;;;;;4968838;28;21073;-80
2022/04/19 05:52:16;;;;;;;6.33;5.87;;;;;;;;;;4964593;28;20483;-78
2022/04/19 05:54:42;;;;;;;5.07;4.77;;;;;;;;;;4973529;28;20447;-78
2022/04/19 05:57:10;;;;;;;5.50;5.07;;;;;;;;;;4970031;28;20417;-78
2022/04/19 05:59:36;;;;;;;7.73;5.07;;;;;;;;;;4964807;28;20463;-78
2022/04/19 06:04:53;;;;;;;5.10;4.60;;;;;;;;;;4965078;28;20435;-77
2022/04/19 06:07:26;;;;;;;5.17;4.93;;;;;;;;;;4965034;28;20452;-77
2022/04/19 06:09:52;;;;;;;7.87;5.37;;;;;;;;;;4967901;28;20480;-79
2022/04/19 06:12:18;;;;;;;6.23;5.77;;;;;;;;;;4965145;28;20544;-79
2022/04/19 06:14:44;;;;;;;5.43;5.23;;;;;;;;;;4970802;28;20527;-78
2022/04/19 06:17:17;;;;;;;6.23;5.90;;;;;;;;;;4965718;28;20469;-78
2022/04/19 06:19:44;;;;;;;6.30;6.00;;;;;;;;;;4969054;28;20479;-79
2022/04/19 06:22:10;;;;;;;6.57;6.17;;;;;;;;;;4964189;28;21017;-79
2022/04/19 06:24:36;;;;;;;7.43;6.83;;;;;;;;;;4970075;28;21095;-78
2022/04/19 06:27:02;;;;;;;8.23;7.40;;;;;;;;;;4968446;28;20473;-80
2022/04/19 06:29:28;;;;;;;8.37;7.53;;;;;;;;;;4963585;28;20515;-80
2022/04/19 06:31:54;;;;;;;9.33;8.37;;;;;;;;;;4966039;28;20531;-79
2022/04/19 06:34:20;;;;;;;8.37;7.67;;;;;;;;;;4967771;28;20444;-80
2022/04/19 06:36:46;;;;;;;8.90;8.00;;;;;;;;;;4973166;28;20504;-80
2022/04/19 06:39:12;;;;;;;9.37;8.57;;;;;;;;;;4971314;28;20445;-80
2022/04/19 06:41:40;;;;;;;8.37;7.67;;;;;;;;;;4976070;28;20433;-79
2022/04/19 06:44:07;;;;;;;8.77;7.97;;;;;;;;;;4975909;28;20452;-80
2022/04/19 06:46:34;;;;;;;11.10;7.97;;;;;;;;;;4965864;28;20475;-82
2022/04/19 06:49:00;;;;;;;9.83;8.87;;;;;;;;;;4970552;28;20468;-79
2022/04/19 06:51:26;;;;;;;9.57;8.77;;;;;;;;;;4965989;28;20997;-79
2022/04/19 06:53:52;;;;;;;9.43;8.77;;;;;;;;;;4972997;28;20546;-83
2022/04/19 06:56:21;;;;;;;9.33;8.50;;;;;;;;;;4968059;28;20452;-81
2022/04/19 06:58:50;;;;;;;10.30;9.50;;;;;;;;;;4969764;28;20456;-82
2022/04/19 07:01:16;;;;;;;9.77;8.97;;;;;;;;;;4968780;28;20946;-82
2022/04/19 07:03:42;;;;;;;9.73;9.00;;;;;;;;;;4972083;28;20871;-82
2022/04/19 07:06:08;;;;;;;9.67;8.77;;;;;;;;;;4966242;28;20417;-82
2022/04/19 07:08:34;;;;;;;10.43;9.33;;;;;;;;;;4965482;28;20489;-81
2022/04/19 07:11:00;;;;;;;11.00;9.70;;;;;;;;;;4966842;28;20422;-80
2022/04/19 07:13:27;;;;;;;11.10;9.93;;;;;;;;;;4965590;28;20441;-80
2022/04/19 07:15:53;;;;;;;10.03;9.20;;;;;;;;;;4966127;28;20453;-80
2022/04/19 07:18:23;;;;;;;9.93;9.13;;;;;;;;;;4976682;28;20437;-80
2022/04/19 07:27:00;;;;;;;9.93;8.87;;;;;;;;;;4958556;28;20692;-78
2022/04/19 07:29:10;;;;;;;11.03;8.80;;;;;;;;;;4959552;28;20475;-80
2022/04/19 07:31:37;;;;;;;9.45;8.65;;;;;;;;;;4619083;28;9999960;-80
2022/04/19 07:34:03;;;;;;;10.00;9.10;;;;;;;;;;4963301;28;20190;-80
2022/04/19 07:36:29;;;;;;;10.20;9.30;;;;;;;;;;4963281;28;20438;-80
2022/04/19 07:38:57;;;;;;;10.40;9.50;;;;;;;;;;4964830;28;20445;-79
2022/04/19 07:41:23;;;;;;;9.97;9.07;;;;;;;;;;4954775;28;20454;-80
2022/04/19 07:43:50;;;;;;;9.70;8.80;;;;;;;;;;4945241;29;20844;-80
2022/04/19 07:46:16;;;;;;;10.50;9.70;;;;;;;;;;4950852;28;20479;-79
2022/04/19 07:48:45;;;;;;;9.97;9.20;;;;;;;;;;4964292;28;20444;-79
2022/04/19 07:51:12;;;;;;;10.90;10.10;;;;;;;;;;4955984;28;20442;-80
2022/04/19 07:53:38;;;;;;;10.97;9.83;;;;;;;;;;4946481;29;20430;-80
2022/04/19 07:56:04;;;;;;;11.17;10.03;;;;;;;;;;4950485;28;20441;-83
2022/04/19 07:58:30;;;;;;;10.57;9.70;;;;;;;;;;4965930;28;20766;-82
2022/04/19 08:00:56;;;;;;;11.20;10.03;;;;;;;;;;4960319;28;20460;-83
2022/04/19 08:03:22;;;;;;;11.83;10.83;;;;;;;;;;4948736;29;20497;-83
2022/04/19 08:05:50;;;;;;;11.30;10.30;;;;;;;;;;4950849;28;20438;-82
2022/04/19 08:08:18;;;;;;;10.40;9.40;;;;;;;;;;4966381;28;20417;-81
2022/04/19 08:10:44;;;;;;;11.67;10.57;;;;;;;;;;4966458;28;20461;-81
2022/04/19 08:13:10;;;;;;;10.83;10.03;;;;;;;;;;4966322;28;20437;-84
2022/04/19 08:15:36;;;;;;;9.57;8.57;;;;;;;;;;4965703;28;20431;-82
2022/04/19 08:18:02;;;;;;;13.70;9.60;;;;;;;;;;4965412;28;20444;-84
2022/04/19 08:20:28;;;;;;;9.57;8.80;;;;;;;;;;4963666;28;20425;-84
2022/04/19 08:22:57;;;;;;;10.53;9.73;;;;;;;;;;4965121;28;20496;-83
2022/04/19 08:25:23;;;;;;;10.30;9.40;;;;;;;;;;4965132;28;20434;-84
2022/04/19 08:27:49;;;;;;;13.07;9.93;;;;;;;;;;4962018;28;20812;-83
2022/04/19 08:30:16;;;;;;;9.33;8.53;;;;;;;;;;4951429;28;20970;-84
2022/04/19 08:32:42;;;;;;;9.90;9.03;;;;;;;;;;4960943;28;20452;-85
2022/04/19 08:35:09;;;;;;;9.53;8.87;;;;;;;;;;4960509;28;20437;-83
2022/04/19 08:37:37;;;;;;;9.27;8.50;;;;;;;;;;4965756;28;20437;-84
2022/04/19 08:40:07;;;;;;;9.13;8.00;;;;;;;;;;4972194;28;20787;-82
2022/04/19 08:42:34;;;;;;;9.10;8.43;;;;;;;;;;4965351;28;20857;-84
2022/04/19 08:45:02;;;;;;;10.70;8.40;;;;;;;;;;4961155;28;20445;-82
2022/04/19 08:47:31;;;;;;;9.27;8.57;;;;;;;;;;4983350;28;20467;-83
2022/04/19 08:49:57;;;;;;;13.50;8.10;;;;;;;;;;4978366;28;20499;-85
2022/04/19 08:52:23;;;;;;;8.60;7.80;;;;;;;;;;4965207;28;20763;-84
2022/04/19 08:57:35;;;;;;;8.77;8.17;;;;;;;;;;4949788;29;20405;-80
2022/04/19 09:00:22;;;;;;;8.87;8.00;;;;;;;;;;5139373;27;20603;-82
2022/04/19 09:02:50;;;;;;;11.93;10.90;;;;;;;;;;5128550;27;20471;-82
2022/04/19 09:05:20;;;;;;;7.63;7.10;;;;;;;;;;5105428;28;20411;-81
2022/04/19 09:07:47;;;;;;;9.10;7.97;;;;;;;;;;5105062;28;20510;-81
2022/04/19 09:10:14;;;;;;;7.37;6.73;;;;;;;;;;5143317;27;20448;-83
2022/04/19 09:13:04;;;;;;;7.10;6.70;;;;;;;;;;5146245;27;20638;-81
2022/04/19 09:15:43;;;;;;;6.40;6.00;;;;;;;;;;5105043;28;20430;-82
2022/04/19 09:18:20;;;;;;;7.23;6.73;;;;;;;;;;5107246;27;20449;-84
2022/04/19 09:20:50;;;;;;;6.33;5.90;;;;;;;;;;5147959;27;20441;-84
2022/04/19 09:23:16;;;;;;;6.83;6.50;;;;;;;;;;5141058;27;20423;-82
2022/04/19 09:25:43;;;;;;;7.13;6.73;;;;;;;;;;5126997;27;20502;-80
2022/04/19 09:28:20;;;;;;;18.10;6.90;;;;;;;;;;5124154;27;20466;-81
2022/04/19 09:30:48;;;;;;;5.95;5.75;;;;;;;;;;4785694;27;10000283;-81
2022/04/19 09:33:18;;;;;;;6.53;6.10;;;;;;;;;;5121359;27;20165;-81
2022/04/19 09:35:44;;;;;;;7.00;6.43;;;;;;;;;;5121938;27;20417;-80
2022/04/19 09:38:10;;;;;;;5.50;5.20;;;;;;;;;;5141187;27;20507;-80
2022/04/19 09:40:41;;;;;;;5.03;4.93;;;;;;;;;;5104629;27;20483;-83
2022/04/19 09:43:11;;;;;;;5.70;5.00;;;;;;;;;;5143180;27;20422;-82
2022/04/19 09:45:46;;;;;;;5.27;5.07;;;;;;;;;;5141082;27;20488;-81
2022/04/19 09:48:16;;;;;;;7.73;7.27;;;;;;;;;;5123298;27;20422;-82
2022/04/19 09:50:48;;;;;;;4.57;4.47;;;;;;;;;;5122254;27;20993;-82
2022/04/19 09:53:18;;;;;;;6.57;4.67;;;;;;;;;;5112273;27;20443;-81
2022/04/19 09:55:48;;;;;;;4.90;4.60;;;;;;;;;;5120137;27;20755;-81
2022/04/19 09:58:15;;;;;;;5.37;4.90;;;;;;;;;;5122386;27;20506;-80
2022/04/19 10:00:43;;;;;;;5.30;5.10;;;;;;;;;;5108501;27;20458;-81
2022/04/19 10:08:10;;;;;;;5.47;5.13;;;;;;;;;;5114200;27;20478;-81
2022/04/19 10:08:58;;;;;;;9.20;6.90;;;;;;;;;;5122937;27;20783;-82
2022/04/19 10:11:26;;;;;;;5.13;4.83;;;;;;;;;;5108860;28;20442;-80
2022/04/19 10:13:53;;;;;;;5.87;5.47;;;;;;;;;;5104124;28;20920;-80
2022/04/19 10:16:19;;;;;;;4.63;4.53;;;;;;;;;;5105161;28;20435;-79
2022/04/19 10:18:45;;;;;;;5.20;4.70;;;;;;;;;;5110016;28;20470;-82
2022/04/19 10:21:23;;;;;;;4.27;4.13;;;;;;;;;;5107515;28;20430;-82
2022/04/19 10:23:49;;;;;;;5.37;5.17;;;;;;;;;;5109273;28;20966;-81
2022/04/19 10:26:19;;;;;;;6.23;5.80;;;;;;;;;;5107311;28;20923;-82
2022/04/19 10:28:45;;;;;;;4.40;4.20;;;;;;;;;;5109517;28;20507;-82
2022/04/19 10:31:12;;;;;;;5.07;4.87;;;;;;;;;;5107159;28;20982;-81
2022/04/19 10:33:50;;;;;;;4.90;4.70;;;;;;;;;;5098115;27;20447;-82
2022/04/19 10:36:22;;;;;;;4.83;4.57;;;;;;;;;;5107002;28;20870;-83
2022/04/19 10:39:08;;;;;;;4.27;4.07;;;;;;;;;;5104509;28;21000;-83
2022/04/19 10:41:52;;;;;;;4.60;4.50;;;;;;;;;;5107148;28;20939;-84
2022/04/19 10:44:23;;;;;;;4.70;4.40;;;;;;;;;;5108473;28;20441;-82
2022/04/19 10:47:11;;;;;;;6.00;5.77;;;;;;;;;;5119647;27;20441;-82
2022/04/19 10:50:06;;;;;;;6.33;5.80;;;;;;;;;;5084475;28;21032;-81
2022/04/19 10:52:43;;;;;;;5.63;5.23;;;;;;;;;;5094172;27;20624;-83
2022/04/19 10:55:09;;;;;;;4.53;4.23;;;;;;;;;;5105158;28;20439;-85
2022/04/19 11:00:38;;;;;;;7.57;6.97;;;;;;;;;;5107741;28;20462;-80
2022/04/19 11:03:07;;;;;;;7.07;6.50;;;;;;;;;;5117736;27;20978;-81
2022/04/19 11:05:43;;;;;;;6.80;6.20;;;;;;;;;;5107711;27;20560;-80
2022/04/19 11:08:29;;;;;;;5.33;4.90;;;;;;;;;;5086601;28;20507;-81
2022/04/19 11:11:22;;;;;;;6.30;6.00;;;;;;;;;;5105066;28;20454;-81
2022/04/19 11:14:06;;;;;;;5.80;5.50;;;;;;;;;;5105220;28;20877;-82
2022/04/19 11:16:38;;;;;;;5.40;5.10;;;;;;;;;;5104794;28;20955;-82
2022/04/19 11:19:13;;;;;;;6.57;6.17;;;;;;;;;;5108410;28;20490;-81
2022/04/19 11:21:48;;;;;;;5.30;5.10;;;;;;;;;;5096875;28;20823;-82
2022/04/19 11:24:34;;;;;;;6.23;5.90;;;;;;;;;;5105949;28;20438;-82
2022/04/19 11:27:00;;;;;;;8.60;5.90;;;;;;;;;;5099933;28;20454;-79
2022/04/19 11:29:47;;;;;;;5.90;5.60;;;;;;;;;;5108345;27;20430;-80
2022/04/19 11:32:20;;;;;;;5.43;5.20;;;;;;;;;;5120510;27;20465;-80
2022/04/19 11:35:01;;;;;;;7.17;6.70;;;;;;;;;;5086227;28;20519;-81
2022/04/19 11:37:27;;;;;;;7.33;6.60;;;;;;;;;;5102589;27;20770;-82
2022/04/19 11:48:16;;;;;;;7.77;7.20;;;;;;;;;;4743595;27;10000140;-82
2022/04/19 11:50:42;;;;;;;6.80;6.40;;;;;;;;;;5104592;28;20181;-82
2022/04/19 11:53:16;;;;;;;8.00;7.30;;;;;;;;;;5101639;28;20787;-81
2022/04/19 11:55:51;;;;;;;6.37;5.97;;;;;;;;;;5105314;28;20411;-81
2022/04/19 11:58:21;;;;;;;6.63;6.10;;;;;;;;;;5119503;27;20512;-81
2022/04/19 12:00:55;;;;;;;6.90;6.50;;;;;;;;;;5125116;27;20410;-81
2022/04/19 12:03:32;;;;;;;7.40;6.70;;;;;;;;;;5107431;27;20938;-81
2022/04/19 12:06:08;;;;;;;7.73;7.30;;;;;;;;;;5105863;28;20467;-81
2022/04/19 12:08:39;;;;;;;6.73;6.40;;;;;;;;;;5126091;27;20756;-80
2022/04/19 12:11:07;;;;;;;7.20;6.70;;;;;;;;;;5129009;27;20541;-81
2022/04/19 12:13:38;;;;;;;6.23;5.83;;;;;;;;;;5127358;27;20414;-79
2022/04/19 12:16:31;;;;;;;6.00;5.70;;;;;;;;;;5127971;27;20977;-82
2022/04/19 12:18:58;;;;;;;7.03;6.43;;;;;;;;;;5086601;28;20951;-81
2022/04/19 12:21:41;;;;;;;8.40;7.83;;;;;;;;;;5086391;28;20688;-81
2022/04/19 12:24:23;;;;;;;7.43;6.70;;;;;;;;;;5087232;28;20952;-79
2022/04/19 12:27:03;;;;;;;6.90;6.30;;;;;;;;;;5091942;27;20489;-80
2022/04/19 12:29:29;;;;;;;6.50;6.00;;;;;;;;;;5128280;27;20394;-81
2022/04/19 12:32:00;;;;;;;7.37;6.70;;;;;;;;;;5124467;27;20423;-82
2022/04/19 12:34:37;;;;;;;7.60;7.00;;;;;;;;;;5126271;27;20433;-81
2022/04/19 12:37:07;;;;;;;9.50;8.60;;;;;;;;;;5119248;27;20981;-81
2022/04/19 12:39:33;;;;;;;5.93;5.53;;;;;;;;;;5096587;27;20999;-82
2022/04/19 12:42:12;;;;;;;9.13;8.33;;;;;;;;;;5088153;28;20415;-82
2022/04/19 12:44:39;;;;;;;9.57;7.10;;;;;;;;;;5110736;27;20927;-82
2022/04/19 12:47:14;;;;;;;6.70;6.30;;;;;;;;;;5126250;27;20454;-81
2022/04/19 12:49:44;;;;;;;6.20;5.93;;;;;;;;;;5100301;27;20465;-82
2022/04/19 12:52:11;;;;;;;6.87;6.47;;;;;;;;;;5084014;28;20432;-83
2022/04/19 12:54:38;;;;;;;6.97;6.57;;;;;;;;;;5103370;28;20495;-82
2022/04/19 12:57:05;;;;;;;7.30;6.73;;;;;;;;;;5079552;28;21016;-83
2022/04/19 12:59:33;;;;;;;7.20;6.70;;;;;;;;;;5098394;28;20471;-82
2022/04/19 13:01:59;;;;;;;6.23;5.83;;;;;;;;;;5095516;27;20511;-84
2022/04/19 13:04:26;;;;;;;6.27;5.90;;;;;;;;;;5086711;28;20499;-85
2022/04/19 13:12:26;;;;;;;5.60;5.40;;;;;;;;;;5101160;28;20518;-83
2022/04/19 13:14:54;;;;;;;6.17;5.67;;;;;;;;;;5102450;28;20440;-83
2022/04/19 13:17:21;;;;;;;7.97;7.57;;;;;;;;;;5094523;28;20464;-80
2022/04/19 13:19:47;;;;;;;7.73;6.67;;;;;;;;;;5102691;28;20839;-83
2022/04/19 13:22:16;;;;;;;6.30;6.00;;;;;;;;;;5107184;28;20408;-85
2022/04/19 13:24:45;;;;;;;6.80;6.20;;;;;;;;;;5105205;28;20695;-81
2022/04/19 13:27:12;;;;;;;6.50;6.03;;;;;;;;;;5103569;28;20958;-82
2022/04/19 13:29:39;;;;;;;7.33;6.93;;;;;;;;;;5105104;28;20431;-82
2022/04/19 13:32:05;;;;;;;6.90;6.40;;;;;;;;;;5104657;28;20613;-83
2022/04/19 13:34:31;;;;;;;6.80;6.20;;;;;;;;;;5091530;28;20469;-81
2022/04/19 13:37:01;;;;;;;6.87;6.50;;;;;;;;;;5103010;28;20829;-81
2022/04/19 13:39:27;;;;;;;7.23;6.67;;;;;;;;;;5105943;28;20917;-84
2022/04/19 13:41:54;;;;;;;6.70;6.20;;;;;;;;;;5105044;28;20438;-84
2022/04/19 13:44:21;;;;;;;7.43;6.93;;;;;;;;;;5103908;28;20925;-82
2022/04/19 13:46:48;;;;;;;7.33;6.63;;;;;;;;;;5115870;27;20822;-83
2022/04/19 13:49:14;;;;;;;7.37;6.97;;;;;;;;;;5104649;28;20812;-83
2022/04/19 13:51:42;;;;;;;6.87;6.30;;;;;;;;;;5122019;27;20514;-82
2022/04/19 13:54:10;;;;;;;6.33;6.03;;;;;;;;;;5101299;28;20773;-82
2022/04/19 13:56:37;;;;;;;6.87;6.47;;;;;;;;;;5089588;28;20485;-81
2022/04/19 13:59:03;;;;;;;6.73;6.33;;;;;;;;;;5107421;27;20893;-82
2022/04/19 14:01:31;;;;;;;6.80;6.30;;;;;;;;;;5109967;28;20440;-82
2022/04/19 14:03:58;;;;;;;6.20;5.87;;;;;;;;;;5108472;28;20476;-82
2022/04/19 14:06:29;;;;;;;7.07;6.40;;;;;;;;;;5109263;28;20509;-83
2022/04/19 14:08:55;;;;;;;6.17;5.87;;;;;;;;;;5116578;27;20835;-84
2022/04/19 14:11:33;;;;;;;6.10;5.70;;;;;;;;;;5129350;27;20418;-82
2022/04/19 14:13:59;;;;;;;6.07;5.77;;;;;;;;;;5115802;27;20676;-83
2022/04/19 14:16:30;;;;;;;6.03;5.67;;;;;;;;;;5112177;27;20468;-81
2022/04/19 14:18:57;;;;;;;5.93;5.73;;;;;;;;;;5115252;27;20512;-82
2022/04/19 14:21:23;;;;;;;6.00;5.70;;;;;;;;;;5126773;27;20942;-81
2022/04/19 14:23:49;;;;;;;4.93;4.53;;;;;;;;;;5115210;27;20426;-82
2022/04/19 14:26:15;;;;;;;4.77;4.60;;;;;;;;;;5129935;27;20410;-81
2022/04/19 14:34:10;;;;;;;6.40;5.97;;;;;;;;;;5118683;27;20416;-82
2022/04/19 14:36:36;;;;;;;6.97;6.57;;;;;;;;;;5130280;27;20406;-82
2022/04/19 14:39:02;;;;;;;6.47;6.23;;;;;;;;;;5117882;27;20474;-80
2022/04/19 14:41:28;;;;;;;5.60;5.30;;;;;;;;;;5107968;28;20423;-82
2022/04/19 14:43:54;;;;;;;5.60;5.13;;;;;;;;;;5114386;27;20566;-82
2022/04/19 14:46:20;;;;;;;5.77;5.47;;;;;;;;;;5129263;27;20439;-80
2022/04/19 14:48:46;;;;;;;5.23;5.13;;;;;;;;;;5125694;27;20430;-79
2022/04/19 14:53:57;;;;;;;7.93;5.60;;;;;;;;;;5109777;27;20524;-82
2022/04/19 14:56:23;;;;;;;3.93;3.93;;;;;;;;;;5100539;28;20424;-81
2022/04/19 14:58:49;;;;;;;6.73;6.13;;;;;;;;;;5106594;28;20558;-80
2022/04/19 15:01:18;;;;;;;4.97;4.60;;;;;;;;;;5108085;28;20775;-82
2022/04/19 15:03:44;;;;;;;5.60;5.40;;;;;;;;;;5103517;28;20423;-81
2022/04/19 15:06:10;;;;;;;5.60;5.30;;;;;;;;;;5101408;28;20443;-81
2022/04/19 15:08:42;;;;;;;4.27;4.10;;;;;;;;;;5106888;28;20423;-81
2022/04/19 15:11:08;;;;;;;5.70;5.33;;;;;;;;;;5105172;28;20427;-80
2022/04/19 15:13:34;;;;;;;5.57;5.27;;;;;;;;;;5108178;28;20399;-82
2022/04/19 15:16:01;;;;;;;5.33;5.13;;;;;;;;;;5093783;28;20456;-81
2022/04/19 15:18:27;;;;;;;5.80;5.50;;;;;;;;;;5100657;28;20759;-78
2022/04/19 15:20:53;;;;;;;7.17;5.60;;;;;;;;;;5108002;28;20834;-80
2022/04/19 15:23:19;;;;;;;4.90;4.80;;;;;;;;;;5105893;28;20491;-79
2022/04/19 15:25:45;;;;;;;5.67;5.37;;;;;;;;;;5108827;28;20423;-77
2022/04/19 15:28:13;;;;;;;6.53;5.80;;;;;;;;;;5105600;28;20421;-79
2022/04/19 15:30:39;;;;;;;7.00;6.40;;;;;;;;;;5095732;28;20482;-78
2022/04/19 15:33:05;;;;;;;5.73;5.40;;;;;;;;;;5104849;27;20462;-78
2022/04/19 15:35:31;;;;;;;4.80;4.60;;;;;;;;;;5100174;28;20412;-78
2022/04/19 15:37:57;;;;;;;4.87;4.57;;;;;;;;;;5114389;27;20484;-77
2022/04/19 15:40:24;;;;;;;6.50;4.50;;;;;;;;;;5103556;28;20752;-78
2022/04/19 15:42:50;;;;;;;3.90;3.80;;;;;;;;;;5102227;28;20893;-79
2022/04/19 15:45:16;;;;;;;4.73;3.63;;;;;;;;;;5106568;28;20534;-79
2022/04/19 15:47:45;;;;;;;2.63;2.53;;;;;;;;;;5113327;27;21107;-78
2022/04/19 15:50:11;;;;;;;2.17;2.17;;;;;;;;;;5106822;28;21102;-80
2022/04/19 15:52:37;;;;;;;3.00;2.90;;;;;;;;;;5117904;27;20521;-80